This is the latest recevied weather packets stored in our database for station/object WX4HP-13. If no packets are shown the sender has not sent any weather packets the latest 10 day(s).
| Time | Temp. | Humidity | Pressure | Rain* | Wind** | Luminosity | Snow |
|---|---|---|---|---|---|---|---|
| 1777744797 | 17.78° C | 35% | 1015.6 hPa | 0 mm | - | - | - |
| 1777744496 | 17.78° C | 35% | 1015.6 hPa | 0 mm | - | - | - |
| 1777744196 | 17.22° C | 36% | 1015.7 hPa | 0 mm | - | - | - |
| 1777743897 | 17.22° C | 34% | 1015.6 hPa | 0 mm | - | - | - |
| 1777743597 | 17.22° C | 36% | 1015.7 hPa | 0 mm | - | - | - |
| 1777743297 | 17.78° C | 37% | 1015.8 hPa | 0 mm | - | - | - |
| 1777742856 | 17.22° C | 35% | 1015.6 hPa | 0 mm | - | - | - |
| 1777742697 | 17.22° C | 35% | 1015.6 hPa | 0 mm | - | - | - |
| 1777742398 | 17.22° C | 37% | 1015.9 hPa | 0 mm | - | - | - |
| 1777742097 | 17.22° C | 38% | 1015.9 hPa | 0 mm | - | - | - |
| 1777741797 | 16.67° C | 39% | 1016 hPa | 0 mm | - | - | - |
| 1777741497 | 16.11° C | 39% | 1016 hPa | 0 mm | - | - | - |
| 1777741196 | 16.67° C | 38% | 1015.9 hPa | 0 mm | - | - | - |
| 1777740897 | 16.67° C | 40% | 1016 hPa | 0 mm | - | - | - |
| 1777740597 | 16.67° C | 41% | 1016.1 hPa | 0 mm | - | - | - |
| 1777740296 | 16.67° C | 39% | 1016.1 hPa | 0 mm | - | - | - |
| 1777739997 | 16.67° C | 44% | 1016.2 hPa | 0 mm | - | - | - |
| 1777739697 | 16.11° C | 41% | 1016.2 hPa | 0 mm | - | - | - |
| 1777739397 | 16.11° C | 43% | 1016.3 hPa | 0 mm | - | - | - |
| 1777739097 | 15.56° C | 44% | 1016.4 hPa | 0 mm | - | - | - |
| 1777738796 | 15° C | 43% | 1016.4 hPa | 0 mm | - | - | - |
| 1777738498 | 15° C | 44% | 1016.5 hPa | 0 mm | - | - | - |
| 1777738196 | 15° C | 44% | 1016.4 hPa | 0 mm | - | - | - |
| 1777737897 | 15° C | 46% | 1016.5 hPa | 0 mm | - | - | - |
| 1777737598 | 14.44° C | 47% | 1016.4 hPa | 0 mm | - | - | - |
* Rain latest hour (hover to see other rain measurements)
** Current wind speed in m/s (hover to see current wind gust speed)